Meade, Kansas
Current Conditions -  °F | °C
As of 12:55 AM on Thursday 23 Oct 2014 (Local Time) from KLBL Reporting Station
Overcast Overcast  
Wind Chill: 64°   Ceiling: 1400
Heat Index: 64°   Visibility: 10mi
Dew Point: 57°   Wind: 12mph
Humidity: 77%   Direction: 210°SSW
Pressure: 30.09"   Gusts: NA
Location:  37.29°N, 100.34°W
Report Text: KLBL 230555Z AUTO 21010KT 10SM OVC014 18/14 A3009 RMK AO1 10210 20160 52003
Loading
Personal Weather Stations






























Interactive Weather Map
Tropical Storm Tracking
New forecast layout! Learn more

10-Day Weather Forecast

Advertisements
Track Severe Weather on mobile